createdAt,value
2023-03-12T00:03:21.104Z,17.90
2023-03-12T00:06:50.230Z,17.90
2023-03-12T00:10:05.990Z,17.90
2023-03-12T00:17:08.924Z,17.80
2023-03-12T00:24:37.719Z,17.80
2023-03-12T00:27:26.642Z,17.70
2023-03-12T00:30:28.719Z,17.70
2023-03-12T00:37:21.921Z,17.70
2023-03-12T00:40:17.839Z,17.70
2023-03-12T00:42:52.851Z,17.70
2023-03-12T00:45:28.763Z,17.70
2023-03-12T00:48:01.574Z,17.70
2023-03-12T00:50:34.651Z,17.70
2023-03-12T00:57:16.306Z,17.70
2023-03-12T01:00:08.601Z,17.70
2023-03-12T01:02:47.232Z,17.70
2023-03-12T01:05:20.233Z,17.70
2023-03-12T01:07:59.334Z,17.60
2023-03-12T01:10:46.683Z,17.60
2023-03-12T01:17:53.151Z,17.60
2023-03-12T01:21:15.272Z,17.60
2023-03-12T01:24:22.907Z,17.50
2023-03-12T01:27:30.042Z,17.50
2023-03-12T01:30:40.353Z,17.50
2023-03-12T01:33:33.772Z,17.50
2023-03-12T01:37:07.908Z,17.50
2023-03-12T01:39:44.292Z,17.50
2023-03-12T01:42:23.010Z,17.60
2023-03-12T01:45:05.826Z,17.60
2023-03-12T01:47:41.958Z,17.60
2023-03-12T01:50:42.338Z,17.70
2023-03-12T01:53:44.008Z,17.70
2023-03-12T01:56:21.790Z,17.70
2023-03-12T01:59:04.154Z,17.80
2023-03-12T02:01:39.668Z,17.80
2023-03-12T02:04:25.784Z,17.80
2023-03-12T02:07:19.660Z,17.80
2023-03-12T02:09:54.685Z,17.80
2023-03-12T02:12:35.285Z,17.80
2023-03-12T02:18:24.733Z,17.80
2023-03-12T02:22:18.752Z,17.80
2023-03-12T02:25:28.647Z,17.70
2023-03-12T02:28:14.259Z,17.70
2023-03-12T02:30:59.397Z,17.70
2023-03-12T02:33:34.833Z,17.70
2023-03-12T02:36:17.802Z,17.70
2023-03-12T02:39:04.464Z,17.60
2023-03-12T02:41:57.784Z,17.60
2023-03-12T02:44:43.449Z,17.60
2023-03-12T02:47:29.715Z,17.60
2023-03-12T02:50:17.867Z,17.50
2023-03-12T02:53:00.939Z,17.50
2023-03-12T02:55:38.961Z,17.50
2023-03-12T02:58:28.034Z,17.50
2023-03-12T03:01:05.330Z,17.40
2023-03-12T03:03:45.740Z,17.40
2023-03-12T03:06:19.862Z,17.40
2023-03-12T03:09:17.654Z,17.40
2023-03-12T03:12:43.388Z,17.40
2023-03-12T03:15:27.561Z,17.40
2023-03-12T03:18:05.677Z,17.40
2023-03-12T03:20:38.552Z,17.40
2023-03-12T03:23:36.768Z,17.40
2023-03-12T03:26:11.849Z,17.40
2023-03-12T03:31:25.889Z,17.40
2023-03-12T03:34:01.516Z,17.40
2023-03-12T03:36:37.596Z,17.40
2023-03-12T03:39:17.995Z,17.40
2023-03-12T03:41:56.258Z,17.40
2023-03-12T03:44:47.680Z,17.40
2023-03-12T03:47:33.279Z,17.40
2023-03-12T03:50:52.065Z,17.40
2023-03-12T03:53:55.636Z,17.40
2023-03-12T03:57:16.280Z,17.40
2023-03-12T03:59:56.840Z,17.40
2023-03-12T04:02:31.061Z,17.40
2023-03-12T04:05:08.885Z,17.30
2023-03-12T04:07:46.873Z,17.30
2023-03-12T04:10:48.035Z,17.30
2023-03-12T04:13:21.720Z,17.30
2023-03-12T04:15:55.699Z,17.30
2023-03-12T04:18:28.740Z,17.20
2023-03-12T04:21:04.722Z,17.20
2023-03-12T04:23:40.616Z,17.20
2023-03-12T04:26:17.890Z,17.20
2023-03-12T04:28:54.085Z,17.20
2023-03-12T04:31:44.373Z,17.20
2023-03-12T04:34:38.823Z,17.10
2023-03-12T04:40:27.938Z,17.20
2023-03-12T04:43:08.185Z,17.20
2023-03-12T04:45:51.764Z,17.20
2023-03-12T04:52:34.996Z,17.20
2023-03-12T04:55:23.637Z,17.20
2023-03-12T04:58:01.307Z,17.20
2023-03-12T05:01:16.854Z,17.20
2023-03-12T05:07:47.010Z,17.20
2023-03-12T05:10:29.428Z,17.20
2023-03-12T05:17:22.421Z,17.20
2023-03-12T05:20:16.579Z,17.20
2023-03-12T05:26:49.428Z,17.20
2023-03-12T05:29:51.114Z,17.30
2023-03-12T05:32:31.667Z,17.30
2023-03-12T05:35:43.286Z,17.30
2023-03-12T05:38:51.707Z,17.30
2023-03-12T05:42:07.853Z,17.40
2023-03-12T05:44:44.557Z,17.50
2023-03-12T05:47:41.255Z,17.50
2023-03-12T05:50:23.905Z,17.60
2023-03-12T05:54:09.029Z,17.70
2023-03-12T05:56:44.328Z,17.90
2023-03-12T06:07:31.615Z,18.40
2023-03-12T06:25:02.112Z,19.60
2023-03-12T06:32:30.646Z,20.30
2023-03-12T06:38:53.654Z,20.70
2023-03-12T06:42:29.645Z,20.80
2023-03-12T06:49:34.612Z,20.50
2023-03-12T06:56:15.753Z,20.50
2023-03-12T06:58:49.258Z,20.60
2023-03-12T07:01:26.580Z,20.50
2023-03-12T07:04:17.110Z,20.60
2023-03-12T07:06:52.782Z,20.60
2023-03-12T07:09:25.682Z,20.80
2023-03-12T07:12:23.806Z,20.90
2023-03-12T07:15:01.332Z,21.00
2023-03-12T07:17:34.841Z,21.10
2023-03-12T07:20:08.273Z,21.20
2023-03-12T07:22:43.143Z,21.30
2023-03-12T07:25:17.864Z,21.40
2023-03-12T07:27:51.424Z,21.40
2023-03-12T07:30:25.452Z,21.50
2023-03-12T07:33:18.330Z,21.60
2023-03-12T07:35:52.036Z,21.60
2023-03-12T07:38:25.337Z,21.60
2023-03-12T07:41:01.690Z,21.70
2023-03-12T07:43:40.177Z,21.90
2023-03-12T07:46:13.538Z,22.00
2023-03-12T07:48:48.856Z,22.10
2023-03-12T07:51:23.930Z,22.20
2023-03-12T07:53:57.223Z,22.30
2023-03-12T07:56:35.016Z,22.40
2023-03-12T07:59:18.781Z,22.50
2023-03-12T08:02:06.894Z,22.60
2023-03-12T08:05:05.177Z,22.70
2023-03-12T08:07:46.674Z,22.70
2023-03-12T08:10:25.487Z,22.70
2023-03-12T08:13:02.584Z,22.60
2023-03-12T08:15:54.448Z,22.60
2023-03-12T08:18:36.319Z,22.60
2023-03-12T08:21:09.109Z,22.60
2023-03-12T08:23:44.283Z,22.50
2023-03-12T08:26:39.925Z,22.50
2023-03-12T08:29:32.152Z,22.50
2023-03-12T08:32:33.194Z,22.60
2023-03-12T08:35:16.751Z,22.70
2023-03-12T08:50:41.249Z,22.80
2023-03-12T09:00:46.651Z,22.80
2023-03-12T09:12:36.273Z,22.70
2023-03-12T09:17:14.087Z,22.60
2023-03-12T09:19:21.713Z,22.70
2023-03-12T09:22:07.177Z,22.70
2023-03-12T09:29:49.628Z,22.80
2023-03-12T09:34:19.188Z,22.70
2023-03-12T09:37:08.672Z,22.70
2023-03-12T09:44:04.784Z,22.70
2023-03-12T09:47:32.682Z,22.60
2023-03-12T09:50:31.862Z,22.60
2023-03-12T09:54:10.248Z,22.60
2023-03-12T09:57:02.343Z,22.60
2023-03-12T10:03:05.367Z,22.50
2023-03-12T10:06:16.761Z,22.40
2023-03-12T10:13:11.362Z,22.30
2023-03-12T10:16:24.120Z,22.40
2023-03-12T10:19:28.768Z,22.40
2023-03-12T10:22:34.444Z,22.40
2023-03-12T10:25:25.570Z,22.40
2023-03-12T10:28:20.676Z,22.40
2023-03-12T10:31:26.880Z,22.40
2023-03-12T10:34:22.282Z,22.40
2023-03-12T10:37:27.586Z,22.30
2023-03-12T10:40:04.958Z,22.20
2023-03-12T10:42:37.794Z,22.10
2023-03-12T10:45:40.877Z,22.00
2023-03-12T10:48:32.091Z,21.80
2023-03-12T10:51:11.993Z,21.70
2023-03-12T10:53:48.613Z,21.70
2023-03-12T10:56:57.521Z,21.60
2023-03-12T10:59:44.202Z,21.50
2023-03-12T11:02:47.605Z,21.40
2023-03-12T11:09:16.915Z,21.40
2023-03-12T11:11:57.107Z,21.40
2023-03-12T11:16:02.572Z,21.30
2023-03-12T11:19:43.075Z,21.30
2023-03-12T11:23:17.090Z,21.20
2023-03-12T11:26:06.554Z,21.10
2023-03-12T11:32:20.804Z,21.00
2023-03-12T11:34:55.197Z,20.90
2023-03-12T11:38:06.781Z,20.90
2023-03-12T11:41:12.834Z,20.90
2023-03-12T11:44:12.356Z,20.90
2023-03-12T11:47:17.205Z,20.80
2023-03-12T11:50:43.058Z,20.80
2023-03-12T11:53:57.039Z,20.70
2023-03-12T11:57:27.205Z,20.70
2023-03-12T12:00:13.703Z,20.60
2023-03-12T12:03:39.220Z,20.50
2023-03-12T12:06:33.285Z,20.50
2023-03-12T12:09:44.023Z,20.40
2023-03-12T12:12:43.887Z,20.40
2023-03-12T12:15:25.435Z,20.30
2023-03-12T12:21:44.968Z,20.20
2023-03-12T12:24:44.160Z,20.20
2023-03-12T12:27:29.402Z,20.20
2023-03-12T12:30:33.798Z,20.30
2023-03-12T12:33:30.018Z,20.30
2023-03-12T12:36:08.213Z,20.30
2023-03-12T12:39:13.311Z,20.30
2023-03-12T12:42:03.578Z,20.30
2023-03-12T12:44:52.315Z,20.20
2023-03-12T12:48:05.982Z,20.20
2023-03-12T12:50:52.586Z,20.20
2023-03-12T12:53:41.031Z,20.20
2023-03-12T12:56:33.905Z,20.20
2023-03-12T12:59:45.394Z,20.20
2023-03-12T13:02:36.657Z,20.20
2023-03-12T13:05:29.200Z,20.20
2023-03-12T13:11:44.601Z,20.30
2023-03-12T13:14:35.995Z,20.30
2023-03-12T13:17:28.747Z,20.30
2023-03-12T13:20:58.134Z,20.30
2023-03-12T13:23:51.908Z,20.30
2023-03-12T13:27:13.479Z,20.30
2023-03-12T13:34:44.574Z,20.30
2023-03-12T13:41:19.571Z,20.20
2023-03-12T13:43:56.636Z,20.20
2023-03-12T13:46:42.409Z,20.10
2023-03-12T13:49:25.267Z,20.10
2023-03-12T13:52:10.318Z,20.00
2023-03-12T13:54:46.950Z,20.00
2023-03-12T13:57:56.580Z,19.90
2023-03-12T14:00:47.903Z,19.90
2023-03-12T14:03:55.787Z,19.90
2023-03-12T14:07:18.690Z,19.90
2023-03-12T14:11:05.807Z,19.90
2023-03-12T14:14:27.596Z,19.90
2023-03-12T14:17:56.673Z,19.90
2023-03-12T14:21:05.024Z,19.90
2023-03-12T14:23:47.429Z,19.90
2023-03-12T14:26:27.042Z,19.90
2023-03-12T14:29:34.589Z,19.90
2023-03-12T14:32:17.975Z,19.90
2023-03-12T14:35:48.423Z,19.90
2023-03-12T14:39:05.359Z,20.00
2023-03-12T14:45:55.040Z,20.00
2023-03-12T14:52:53.304Z,19.90
2023-03-12T14:56:24.599Z,19.90
2023-03-12T15:00:38.045Z,19.90
2023-03-12T15:06:47.715Z,19.90
2023-03-12T15:09:44.411Z,19.90
2023-03-12T15:22:10.067Z,19.80
2023-03-12T15:32:32.106Z,19.80
2023-03-12T15:35:57.596Z,19.80
2023-03-12T15:43:35.729Z,19.80
2023-03-12T15:46:31.550Z,19.80
2023-03-12T15:49:24.396Z,19.80
2023-03-12T15:52:26.332Z,19.80
2023-03-12T15:55:17.519Z,19.90
2023-03-12T15:58:00.153Z,19.80
2023-03-12T16:00:45.847Z,19.80
2023-03-12T16:03:30.599Z,19.80
2023-03-12T16:06:52.104Z,19.80
2023-03-12T16:12:40.767Z,19.70
2023-03-12T16:16:06.361Z,19.70
2023-03-12T16:19:02.682Z,19.70
2023-03-12T16:57:06.456Z,19.20
2023-03-12T17:00:32.965Z,19.10
2023-03-12T17:03:38.419Z,19.00
2023-03-12T17:11:12.540Z,18.80
2023-03-12T17:14:03.244Z,18.70
2023-03-12T17:16:59.543Z,18.60
2023-03-12T17:19:36.772Z,18.50
2023-03-12T17:22:20.110Z,18.40
2023-03-12T17:25:03.063Z,18.20
2023-03-12T17:27:49.867Z,18.20
2023-03-12T18:20:06.492Z,16.90
2023-03-12T18:26:29.352Z,17.00
2023-03-12T18:29:07.177Z,17.00
2023-03-12T18:31:41.840Z,17.00
2023-03-12T18:34:24.293Z,17.00
2023-03-12T18:37:00.138Z,17.00
2023-03-12T18:39:37.920Z,17.00
2023-03-12T18:42:10.775Z,17.00
2023-03-12T18:44:46.016Z,17.00
2023-03-12T18:47:21.237Z,17.00
2023-03-12T18:49:56.019Z,17.10
2023-03-12T18:52:28.775Z,17.10
2023-03-12T18:55:03.830Z,17.10
2023-03-12T18:57:36.517Z,17.10
2023-03-12T19:00:14.726Z,17.10
2023-03-12T19:02:59.578Z,17.10
2023-03-12T19:05:54.909Z,17.10
2023-03-12T19:12:36.563Z,17.10
2023-03-12T19:15:43.822Z,17.10
2023-03-12T19:24:45.741Z,17.00
2023-03-12T19:27:19.308Z,17.00
2023-03-12T19:29:58.333Z,17.00
2023-03-12T19:32:42.559Z,17.00
2023-03-12T19:35:41.008Z,17.00
2023-03-12T19:38:48.916Z,17.00
2023-03-12T19:41:25.699Z,17.00
2023-03-12T19:44:00.995Z,17.00
2023-03-12T19:46:41.954Z,17.00
2023-03-12T19:49:16.790Z,17.00
2023-03-12T19:51:55.363Z,17.00
2023-03-12T19:54:29.706Z,17.00
2023-03-12T19:57:05.840Z,17.00
2023-03-12T19:59:39.054Z,17.00
2023-03-12T20:02:15.870Z,17.00
2023-03-12T20:05:10.301Z,17.00
2023-03-12T20:07:55.846Z,17.00
2023-03-12T20:10:49.290Z,17.00
2023-03-12T20:13:38.726Z,17.00
2023-03-12T20:16:21.413Z,17.00
2023-03-12T20:19:03.794Z,17.00
2023-03-12T20:21:38.042Z,17.00
2023-03-12T20:24:22.069Z,17.00
2023-03-12T20:30:52.765Z,17.00
2023-03-12T20:34:11.713Z,17.00
2023-03-12T20:37:14.025Z,17.00
2023-03-12T20:40:31.856Z,17.00
2023-03-12T20:46:45.899Z,17.00
2023-03-12T20:49:21.935Z,17.00
2023-03-12T20:52:07.716Z,17.00
2023-03-12T20:55:46.968Z,17.00
2023-03-12T20:59:00.122Z,17.00
2023-03-12T21:01:33.177Z,17.00
2023-03-12T21:04:06.103Z,17.00
2023-03-12T21:06:42.322Z,17.00
2023-03-12T21:09:38.969Z,17.00
2023-03-12T21:13:08.460Z,17.00
2023-03-12T21:16:42.719Z,17.00
2023-03-12T21:19:29.106Z,16.90
2023-03-12T21:22:18.972Z,16.90
2023-03-12T21:25:02.155Z,16.90
2023-03-12T21:27:48.034Z,16.90
2023-03-12T21:31:28.456Z,16.90
2023-03-12T21:34:29.469Z,16.90
2023-03-12T21:37:02.084Z,16.90
2023-03-12T21:39:35.486Z,16.90
2023-03-12T21:45:25.420Z,16.80
2023-03-12T21:49:20.187Z,16.80
2023-03-12T21:52:20.254Z,16.80
2023-03-12T21:55:20.877Z,16.80
2023-03-12T21:58:25.779Z,16.80
2023-03-12T22:01:45.794Z,16.80
2023-03-12T22:07:52.828Z,16.80
2023-03-12T22:10:31.571Z,16.80
2023-03-12T22:13:38.672Z,16.70
2023-03-12T22:16:20.934Z,16.70
2023-03-12T22:19:35.392Z,16.80
2023-03-12T22:22:43.588Z,16.70
2023-03-12T22:28:57.037Z,16.70
2023-03-12T22:35:09.745Z,16.70
2023-03-12T22:44:28.553Z,16.70
2023-03-12T22:47:37.291Z,16.70
2023-03-12T22:50:38.639Z,16.70
2023-03-12T22:53:14.471Z,16.70
2023-03-12T22:56:15.617Z,16.70
2023-03-12T23:02:09.162Z,16.70
2023-03-12T23:04:50.351Z,16.70
2023-03-12T23:10:58.092Z,16.70
2023-03-12T23:13:59.229Z,16.70
2023-03-12T23:19:44.559Z,16.70
2023-03-12T23:22:49.213Z,16.70
2023-03-12T23:25:34.057Z,16.60
2023-03-12T23:28:49.059Z,16.70
2023-03-12T23:31:39.906Z,16.60
2023-03-12T23:34:27.484Z,16.60
2023-03-12T23:37:13.522Z,16.60
2023-03-12T23:40:05.687Z,16.60
2023-03-12T23:42:51.229Z,16.60
2023-03-12T23:45:50.238Z,16.60
2023-03-12T23:49:15.319Z,16.50
2023-03-12T23:52:18.504Z,16.60
2023-03-12T23:55:03.881Z,16.50
2023-03-12T23:58:15.605Z,16.60
